Time;durP1;ratioP1;P1;durP2;ratioP2;P2;SDS_P1;SDS_P2;PMS_P1;PMS_P2;Temp;Humidity;BMP_temperature;BMP_pressure;BME280_temperature;BME280_humidity;BME280_pressure;Samples;Min_cycle;Max_cycle;Signal;HPM_P1;HPM_P2
2022/08/31 00:03:59;;;;;;;12.43;9.18;;;;;;;18.36;82.94;94652.13;5132838;27;20218;-72
2022/08/31 00:06:26;;;;;;;13.63;9.95;;;;;;;18.36;82.79;94652.13;5132494;27;20659;-72
2022/08/31 00:08:53;;;;;;;16.40;8.57;;;;;;;18.40;82.97;94655.69;5132527;27;20245;-72
2022/08/31 00:11:26;;;;;;;16.20;8.65;;;;;;;18.33;83.25;94652.06;5132571;27;20225;-71
2022/08/31 00:13:55;;;;;;;11.55;8.80;;;;;;;18.38;83.56;94658.03;5132333;27;20273;-72
2022/08/31 00:16:24;;;;;;;14.13;9.93;;;;;;;18.35;83.78;94664.25;5132495;27;20289;-72
2022/08/31 00:18:52;;;;;;;15.48;9.60;;;;;;;18.34;83.72;94657.19;5132885;27;20201;-72
2022/08/31 00:21:20;;;;;;;15.13;9.02;;;;;;;18.21;84.43;94661.34;5131908;27;20229;-72
2022/08/31 00:23:48;;;;;;;13.85;8.93;;;;;;;18.15;84.60;94660.13;5132306;27;20728;-71
2022/08/31 00:26:15;;;;;;;12.57;9.20;;;;;;;18.13;85.01;94650.69;5132646;27;20620;-72
2022/08/31 00:28:42;;;;;;;12.40;8.60;;;;;;;18.18;84.71;94653.88;5132718;27;20201;-71
2022/08/31 00:31:09;;;;;;;12.32;9.10;;;;;;;18.17;84.66;94652.31;5150091;27;20196;-70
2022/08/31 00:33:38;;;;;;;14.30;8.95;;;;;;;18.07;84.92;94655.72;5153364;27;20228;-70
2022/08/31 00:36:06;;;;;;;14.18;9.40;;;;;;;17.97;85.45;94654.44;5152779;27;20727;-71
2022/08/31 00:38:33;;;;;;;14.65;9.32;;;;;;;17.87;85.91;94654.31;5152766;27;20192;-71
2022/08/31 00:41:01;;;;;;;16.45;9.52;;;;;;;17.90;86.00;94656.31;5152513;27;20265;-70
2022/08/31 00:43:41;;;;;;;14.88;9.50;;;;;;;17.98;85.43;94661.50;5153070;27;20787;-70
2022/08/31 00:46:09;;;;;;;15.55;9.77;;;;;;;18.12;84.65;94660.88;5150459;27;20224;-72
2022/08/31 00:48:42;;;;;;;11.00;7.63;;;;;;;18.29;83.31;94663.03;5132288;27;20273;-71
2022/08/31 00:51:09;;;;;;;11.30;8.10;;;;;;;18.32;83.83;94665.00;5131574;27;20185;-70
2022/08/31 00:53:37;;;;;;;12.15;8.88;;;;;;;18.35;83.43;94658.75;5131509;27;20228;-70
2022/08/31 00:56:04;;;;;;;15.95;10.18;;;;;;;18.40;83.33;94672.16;5131841;27;20254;-72
2022/08/31 00:58:31;;;;;;;13.80;9.25;;;;;;;18.40;83.29;94660.38;5131856;27;20589;-70
2022/08/31 01:00:59;;;;;;;16.13;9.32;;;;;;;18.32;83.60;94670.47;5131692;27;20257;-71
2022/08/31 01:03:27;;;;;;;13.20;9.13;;;;;;;18.28;84.03;94671.63;5132055;27;20205;-71
2022/08/31 01:05:55;;;;;;;18.33;9.65;;;;;;;18.24;84.55;94668.84;5131920;27;20791;-71
2022/08/31 01:08:22;;;;;;;13.70;9.00;;;;;;;18.30;84.14;94667.34;5132034;27;20205;-71
2022/08/31 01:10:49;;;;;;;15.88;9.02;;;;;;;18.38;84.21;94663.50;5130958;27;20229;-71
2022/08/31 01:13:16;;;;;;;14.00;9.13;;;;;;;18.33;84.32;94665.78;5131365;27;20281;-70
2022/08/31 01:15:50;;;;;;;14.55;9.18;;;;;;;18.41;84.07;94668.25;5131324;27;20253;-70
2022/08/31 01:18:17;;;;;;;14.35;8.57;;;;;;;18.43;84.16;94665.91;5131646;27;20238;-71
2022/08/31 01:20:54;;;;;;;14.20;9.40;;;;;;;18.60;84.13;94664.53;5131288;27;20607;-71
2022/08/31 01:23:26;;;;;;;13.43;8.57;;;;;;;18.55;84.42;94666.81;5130249;27;20593;-71
2022/08/31 01:25:56;;;;;;;12.18;8.35;;;;;;;18.54;84.15;94666.00;5130557;27;20192;-71
2022/08/31 01:28:24;;;;;;;18.40;10.68;;;;;;;18.60;83.91;94661.78;5131019;27;20238;-70
2022/08/31 01:30:59;;;;;;;13.98;9.95;;;;;;;18.56;84.40;94668.38;5146730;27;20563;-72
2022/08/31 01:33:26;;;;;;;15.85;9.50;;;;;;;18.56;84.61;94662.91;5152271;27;20214;-72
2022/08/31 01:35:53;;;;;;;15.40;9.38;;;;;;;18.48;84.54;94665.56;5151576;27;20200;-71
2022/08/31 01:38:21;;;;;;;12.25;9.05;;;;;;;18.55;84.51;94666.81;5152079;27;20196;-71
2022/08/31 01:40:53;;;;;;;12.90;9.38;;;;;;;18.45;84.28;94671.00;5150980;27;20196;-71
2022/08/31 01:43:21;;;;;;;11.25;8.25;;;;;;;18.39;84.28;94659.59;5151555;27;20189;-71
2022/08/31 01:45:48;;;;;;;14.02;8.85;;;;;;;18.38;84.16;94657.22;5151741;27;20216;-70
2022/08/31 01:48:16;;;;;;;9.93;7.88;;;;;;;18.22;84.71;94665.69;5151509;27;20257;-71
2022/08/31 01:50:43;;;;;;;13.07;8.48;;;;;;;18.18;84.96;94664.84;5151728;27;20213;-71
2022/08/31 01:53:11;;;;;;;14.88;8.57;;;;;;;18.21;84.97;94666.03;5151197;27;20264;-71
2022/08/31 01:55:38;;;;;;;10.88;8.98;;;;;;;18.23;84.43;94664.50;5151493;27;20236;-71
2022/08/31 01:58:07;;;;;;;14.25;8.52;;;;;;;18.24;84.20;94663.34;5151820;27;20204;-71
2022/08/31 02:00:35;;;;;;;11.93;8.80;;;;;;;18.26;84.08;94663.75;5151103;27;20192;-72
2022/08/31 02:03:03;;;;;;;9.13;7.32;;;;;;;18.24;84.22;94657.88;5151637;27;20290;-71
2022/08/31 02:05:30;;;;;;;12.43;8.82;;;;;;;18.10;84.48;94657.72;5150621;27;20640;-70
2022/08/31 02:07:57;;;;;;;17.83;9.40;;;;;;;18.18;84.83;94664.06;5151434;27;20263;-70
2022/08/31 02:10:25;;;;;;;12.52;9.07;;;;;;;18.14;84.82;94664.03;5151370;27;20204;-71
2022/08/31 02:12:52;;;;;;;13.43;9.18;;;;;;;18.06;84.72;94665.09;5150663;27;20228;-71
2022/08/31 02:15:20;;;;;;;12.95;8.70;;;;;;;18.08;84.84;94665.50;5150498;27;20284;-71
2022/08/31 02:17:47;;;;;;;12.65;7.70;;;;;;;18.08;84.58;94657.28;5151043;27;20193;-71
2022/08/31 02:20:15;;;;;;;11.02;8.20;;;;;;;18.05;84.73;94666.25;5151278;27;20196;-71
2022/08/31 02:22:43;;;;;;;12.07;8.27;;;;;;;18.02;85.41;94672.50;5151135;27;20204;-71
2022/08/31 02:25:11;;;;;;;17.08;9.30;;;;;;;18.00;85.98;94669.34;5151157;27;20380;-71
2022/08/31 02:27:38;;;;;;;12.60;9.40;;;;;;;18.03;85.52;94657.63;5151191;27;20192;-71
2022/08/31 02:30:07;;;;;;;15.93;7.95;;;;;;;18.00;85.46;94661.13;5141841;27;20193;-71
2022/08/31 02:32:35;;;;;;;14.93;8.82;;;;;;;17.97;86.06;94662.66;5130114;28;20587;-71
2022/08/31 02:35:02;;;;;;;12.50;8.25;;;;;;;17.91;85.98;94652.38;5130382;28;20289;-71
2022/08/31 02:37:29;;;;;;;14.07;8.55;;;;;;;17.90;86.32;94659.06;5133672;27;20733;-71
2022/08/31 02:39:56;;;;;;;16.42;11.52;;;;;;;17.81;86.34;94647.56;5134533;27;20337;-71
2022/08/31 02:42:23;;;;;;;17.08;9.38;;;;;;;17.73;86.30;94644.75;5134523;27;20702;-71
2022/08/31 02:44:50;;;;;;;14.32;8.88;;;;;;;17.74;85.90;94653.75;5133855;27;20200;-71
2022/08/31 02:47:17;;;;;;;12.25;8.30;;;;;;;17.75;85.64;94658.88;5134219;27;20273;-71
2022/08/31 02:49:45;;;;;;;11.82;8.48;;;;;;;17.69;85.80;94659.56;5134785;27;20200;-71
2022/08/31 02:52:12;;;;;;;14.05;9.48;;;;;;;17.58;86.30;94664.88;5134511;27;20197;-71
2022/08/31 02:54:38;;;;;;;13.82;8.70;;;;;;;17.48;86.50;94651.81;5133810;27;20576;-71
2022/08/31 02:57:05;;;;;;;14.13;8.60;;;;;;;17.54;87.24;94657.75;5134167;27;20205;-71
2022/08/31 02:59:32;;;;;;;11.63;8.13;;;;;;;17.60;87.63;94651.59;5134306;27;20459;-71
2022/08/31 03:01:59;;;;;;;11.43;8.10;;;;;;;17.49;88.32;94656.16;5134097;27;20249;-71
2022/08/31 03:04:26;;;;;;;14.70;9.40;;;;;;;17.44;89.02;94653.72;5133616;27;20266;-71
2022/08/31 03:06:54;;;;;;;14.50;8.93;;;;;;;17.40;89.86;94652.88;5133833;27;20719;-71
2022/08/31 03:09:21;;;;;;;12.90;8.85;;;;;;;17.44;89.63;94653.72;5134188;27;20193;-71
2022/08/31 03:11:48;;;;;;;16.25;9.40;;;;;;;17.43;89.19;94649.41;5133039;27;20241;-71
2022/08/31 03:14:15;;;;;;;12.77;9.13;;;;;;;17.38;89.51;94655.19;5133848;27;20209;-71
2022/08/31 03:16:42;;;;;;;11.35;8.68;;;;;;;17.32;89.65;94662.94;5132806;27;20201;-71
2022/08/31 03:19:09;;;;;;;13.02;8.77;;;;;;;17.29;89.28;94662.88;5133485;27;20208;-72
2022/08/31 03:21:36;;;;;;;13.10;8.50;;;;;;;17.24;89.64;94665.94;5134187;27;20196;-72
2022/08/31 03:24:05;;;;;;;14.60;8.63;;;;;;;17.30;90.06;94659.00;5134077;27;20201;-71
2022/08/31 03:26:32;;;;;;;20.48;8.70;;;;;;;17.18;89.62;94653.72;5133779;27;20648;-70
2022/08/31 03:28:59;;;;;;;14.00;8.70;;;;;;;17.21;89.96;94655.75;5133770;27;20201;-72
2022/08/31 03:31:26;;;;;;;14.05;8.93;;;;;;;17.19;89.69;94658.06;5154388;27;20261;-72
2022/08/31 03:33:53;;;;;;;14.48;9.00;;;;;;;17.18;89.93;94656.47;5154673;27;20273;-72
2022/08/31 03:36:20;;;;;;;11.27;7.75;;;;;;;17.23;89.13;94650.66;5154517;27;20587;-72
2022/08/31 03:38:47;;;;;;;12.95;8.90;;;;;;;17.34;88.48;94648.88;5154541;27;20192;-72
2022/08/31 03:41:18;;;;;;;14.05;9.57;;;;;;;17.37;88.35;94645.38;5154372;27;20545;-70
2022/08/31 03:43:45;;;;;;;12.52;9.02;;;;;;;17.34;87.84;94637.94;5154297;27;20197;-71
2022/08/31 03:46:12;;;;;;;13.13;8.15;;;;;;;17.34;87.94;94651.63;5150846;27;20221;-72
2022/08/31 03:48:39;;;;;;;16.55;10.43;;;;;;;17.35;87.92;94639.50;5132545;27;20237;-72
2022/08/31 03:51:06;;;;;;;11.77;9.00;;;;;;;17.32;87.83;94646.53;5133700;27;20297;-72
2022/08/31 03:53:34;;;;;;;11.23;8.02;;;;;;;17.25;88.21;94640.94;5133580;27;20692;-72
2022/08/31 03:56:02;;;;;;;11.68;8.77;;;;;;;17.24;88.39;94642.09;5133172;27;20285;-72
2022/08/31 03:58:32;;;;;;;14.50;8.05;;;;;;;17.03;89.35;94650.78;5133473;27;20204;-71
2022/08/31 04:00:58;;;;;;;15.45;8.52;;;;;;;16.87;89.86;94652.88;5132887;27;20698;-70
2022/08/31 04:03:25;;;;;;;18.65;9.73;;;;;;;16.75;89.99;94658.53;5132858;27;20197;-70
2022/08/31 04:05:52;;;;;;;17.52;10.07;;;;;;;16.65;91.37;94659.94;5133171;27;20261;-70
2022/08/31 04:08:20;;;;;;;15.95;9.40;;;;;;;16.74;91.68;94653.44;5133068;27;20205;-70
2022/08/31 04:10:49;;;;;;;20.23;9.85;;;;;;;16.83;91.77;94654.75;5132829;27;20213;-70
2022/08/31 04:13:16;;;;;;;14.63;9.45;;;;;;;17.10;90.52;94660.25;5133394;27;20237;-71
2022/08/31 04:15:45;;;;;;;15.35;9.77;;;;;;;17.28;89.47;94651.16;5132800;27;20593;-71
2022/08/31 04:18:12;;;;;;;18.85;10.10;;;;;;;17.46;88.67;94651.41;5132459;27;20196;-70
2022/08/31 04:20:40;;;;;;;17.98;10.13;;;;;;;17.72;88.30;94654.13;5132450;27;20201;-71
2022/08/31 04:23:08;;;;;;;15.73;9.00;;;;;;;18.11;86.63;94659.28;5132248;27;20628;-71
2022/08/31 04:25:37;;;;;;;19.80;10.02;;;;;;;18.37;85.16;94656.44;5132617;27;20516;-71
2022/08/31 04:28:06;;;;;;;15.93;9.90;;;;;;;18.98;83.42;94654.28;5131806;27;20265;-71
2022/08/31 04:30:33;;;;;;;19.00;9.57;;;;;;;19.42;80.92;94654.19;5144751;27;20196;-71
2022/08/31 04:33:01;;;;;;;12.73;8.88;;;;;;;19.90;79.36;94643.09;5153238;27;20228;-71
2022/08/31 04:35:28;;;;;;;15.95;9.93;;;;;;;20.41;77.42;94659.41;5152764;27;20228;-71
2022/08/31 04:37:55;;;;;;;14.52;9.55;;;;;;;20.88;76.32;94647.28;5153011;27;20197;-71
2022/08/31 04:40:22;;;;;;;16.17;9.88;;;;;;;21.13;73.86;94655.56;5153417;27;20224;-71
2022/08/31 04:42:49;;;;;;;20.23;8.77;;;;;;;21.48;73.04;94650.03;5153293;27;20196;-71
2022/08/31 04:45:16;;;;;;;13.07;8.65;;;;;;;21.94;70.73;94655.44;5153075;27;20705;-71
2022/08/31 04:47:44;;;;;;;15.00;8.73;;;;;;;22.34;69.64;94647.78;5137189;27;20245;-71
2022/08/31 04:50:15;;;;;;;14.68;8.63;;;;;;;22.74;68.03;94645.59;5132113;27;20193;-72
2022/08/31 04:52:42;;;;;;;13.95;8.50;;;;;;;23.55;65.77;94638.66;5132413;27;20216;-72
2022/08/31 04:55:10;;;;;;;16.75;9.18;;;;;;;24.15;63.64;94639.97;5132170;27;20232;-72
2022/08/31 04:57:39;;;;;;;12.82;8.43;;;;;;;24.20;62.76;94645.03;5131260;27;20249;-71
2022/08/31 05:00:08;;;;;;;14.00;8.57;;;;;;;24.44;62.26;94633.69;5132020;27;20563;-71
2022/08/31 05:02:35;;;;;;;17.65;11.20;;;;;;;24.80;61.00;94630.41;5132015;27;20197;-72
2022/08/31 05:05:02;;;;;;;13.73;10.50;;;;;;;25.42;59.02;94637.38;5132536;27;20197;-71
2022/08/31 05:07:30;;;;;;;16.58;10.45;;;;;;;25.65;58.31;94631.03;5132019;27;20209;-71
2022/08/31 05:09:57;;;;;;;13.18;8.88;;;;;;;26.70;54.32;94632.88;5131776;27;20708;-71
2022/08/31 05:12:24;;;;;;;14.40;9.00;;;;;;;26.78;53.86;94631.53;5131545;27;20243;-71
2022/08/31 05:14:51;;;;;;;12.70;10.13;;;;;;;26.45;55.02;94627.09;5131382;27;20263;-72
2022/08/31 05:17:17;;;;;;;14.23;9.70;;;;;;;26.98;53.73;94623.13;5131862;27;20289;-71
2022/08/31 05:19:45;;;;;;;11.75;9.65;;;;;;;27.57;51.57;94625.66;5131279;27;20209;-71
2022/08/31 05:22:12;;;;;;;16.15;10.20;;;;;;;28.00;50.40;94616.16;5131644;27;20224;-72
2022/08/31 05:24:40;;;;;;;12.98;9.32;;;;;;;28.57;48.80;94620.88;5131356;27;20735;-71
2022/08/31 05:27:07;;;;;;;16.52;9.88;;;;;;;27.95;50.17;94619.47;5131576;27;20201;-71
2022/08/31 05:29:34;;;;;;;13.70;9.70;;;;;;;27.96;49.65;94626.63;5135733;27;20189;-71
2022/08/31 05:32:01;;;;;;;15.55;10.02;;;;;;;28.14;49.14;94623.34;5151320;27;20220;-71
2022/08/31 05:34:28;;;;;;;15.15;10.45;;;;;;;28.51;48.85;94616.31;5152097;27;20225;-71
2022/08/31 05:36:57;;;;;;;12.02;10.25;;;;;;;28.80;47.70;94611.47;5151965;27;20227;-71
2022/08/31 05:39:24;;;;;;;16.20;10.52;;;;;;;28.33;49.05;94616.84;5152247;27;20192;-72
2022/08/31 05:41:54;;;;;;;18.08;11.30;;;;;;;27.34;51.14;94620.25;5151973;27;20219;-71
2022/08/31 05:44:21;;;;;;;15.55;11.05;;;;;;;27.97;50.33;94622.63;5152156;27;20196;-71
2022/08/31 05:46:48;;;;;;;12.90;10.15;;;;;;;28.63;48.48;94609.97;5143428;27;20621;-71
2022/08/31 05:49:15;;;;;;;15.63;10.43;;;;;;;28.70;48.45;94606.22;5130810;27;20205;-71
2022/08/31 05:51:42;;;;;;;12.25;10.02;;;;;;;29.00;47.46;94598.06;5130476;27;20250;-71
2022/08/31 05:54:10;;;;;;;14.65;10.38;;;;;;;29.94;45.77;94597.31;5131267;27;20197;-71
2022/08/31 05:56:40;;;;;;;16.73;10.13;;;;;;;29.73;45.49;94595.28;5130514;27;20766;-71
2022/08/31 05:59:08;;;;;;;14.77;10.65;;;;;;;29.74;45.38;94604.44;5130207;27;20197;-71
2022/08/31 06:01:38;;;;;;;15.50;9.40;;;;;;;30.64;43.56;94597.97;5130930;27;20249;-71
2022/08/31 06:04:07;;;;;;;16.48;9.60;;;;;;;31.41;42.41;94599.72;5130919;27;20189;-71
2022/08/31 06:06:35;;;;;;;15.70;9.77;;;;;;;31.71;41.36;94600.84;5130407;27;20588;-71
2022/08/31 06:09:02;;;;;;;13.95;9.23;;;;;;;31.45;41.57;94594.72;5130928;27;20197;-71
2022/08/31 06:11:33;;;;;;;17.10;9.77;;;;;;;31.45;42.06;94599.53;5130238;27;20220;-72
2022/08/31 06:14:02;;;;;;;17.00;9.82;;;;;;;31.88;40.79;94592.94;5131223;27;20193;-71
2022/08/31 06:16:31;;;;;;;16.33;10.23;;;;;;;31.48;41.47;94598.63;5130577;27;20224;-71
2022/08/31 06:19:02;;;;;;;12.25;10.13;;;;;;;31.06;42.61;94587.13;5130647;27;20212;-71
2022/08/31 06:21:31;;;;;;;15.15;9.35;;;;;;;31.21;42.35;94595.75;5130359;27;20189;-71
2022/08/31 06:23:58;;;;;;;19.35;9.35;;;;;;;32.67;40.00;94581.78;5130506;27;20254;-71
2022/08/31 06:26:27;;;;;;;15.23;9.20;;;;;;;31.60;41.36;94582.91;5130356;28;20731;-72
2022/08/31 06:28:55;;;;;;;14.45;9.40;;;;;;;32.44;39.93;94577.66;5130836;28;20197;-71
2022/08/31 06:31:26;;;;;;;17.23;9.15;;;;;;;33.05;38.90;94575.63;5150432;27;20213;-71
2022/08/31 06:33:56;;;;;;;19.50;9.30;;;;;;;32.22;40.33;94583.47;5150892;27;20196;-71
2022/08/31 06:36:26;;;;;;;10.45;8.57;;;;;;;31.43;41.88;94585.25;5151192;27;20228;-71
2022/08/31 06:38:54;;;;;;;12.82;8.68;;;;;;;30.48;43.30;94584.97;5151155;27;20196;-71
2022/08/31 06:41:23;;;;;;;12.80;8.43;;;;;;;29.56;45.47;94593.88;5151186;27;20196;-71
2022/08/31 06:43:51;;;;;;;15.07;9.48;;;;;;;29.41;46.28;94592.78;5151243;27;20272;-71
2022/08/31 06:46:19;;;;;;;15.63;9.48;;;;;;;28.41;48.54;94600.72;5147076;27;20261;-71
2022/08/31 06:48:46;;;;;;;13.68;10.00;;;;;;;26.29;53.47;94615.91;5130325;28;20203;-72
2022/08/31 06:51:15;;;;;;;10.30;9.13;;;;;;;25.63;55.84;94622.34;5130334;28;20201;-73
2022/08/31 06:53:42;;;;;;;13.15;9.43;;;;;;;26.62;53.25;94603.69;5129996;28;20201;-72
2022/08/31 06:56:11;;;;;;;11.55;8.57;;;;;;;27.35;51.91;94609.91;5130096;28;20233;-72
2022/08/31 06:58:39;;;;;;;11.95;8.63;;;;;;;28.50;49.59;94609.19;5130826;28;20224;-71
2022/08/31 07:01:07;;;;;;;15.50;9.00;;;;;;;27.83;50.43;94611.88;5129658;28;20616;-72
2022/08/31 07:03:38;;;;;;;14.15;8.90;;;;;;;28.66;49.56;94606.31;5130172;28;20204;-71
2022/08/31 07:06:08;;;;;;;13.48;8.90;;;;;;;29.05;47.97;94598.75;5129578;28;20392;-71
2022/08/31 07:08:37;;;;;;;12.65;8.82;;;;;;;29.66;46.25;94599.09;5130116;28;20220;-71
2022/08/31 07:11:04;;;;;;;11.48;8.00;;;;;;;30.65;44.81;94593.94;5130043;28;20768;-72
2022/08/31 07:13:31;;;;;;;15.25;8.95;;;;;;;30.43;44.68;94587.59;5130110;28;20286;-71
2022/08/31 07:16:06;;;;;;;9.38;8.25;;;;;;;30.15;45.23;94595.81;5130115;28;20657;-71
2022/08/31 07:18:33;;;;;;;8.45;7.45;;;;;;;30.51;44.71;94600.06;5130413;28;20200;-71
2022/08/31 07:21:11;;;;;;;11.57;8.70;;;;;;;29.96;45.28;94605.25;5130601;28;20242;-71
2022/08/31 07:23:39;;;;;;;10.60;8.45;;;;;;;29.60;46.09;94609.28;5131939;27;20242;-71
2022/08/31 07:26:08;;;;;;;14.50;8.50;;;;;;;30.16;45.12;94602.16;5133893;27;20268;-71
2022/08/31 07:28:36;;;;;;;13.93;8.98;;;;;;;28.95;48.51;94609.81;5133942;27;20197;-72
2022/08/31 07:31:04;;;;;;;13.80;8.10;;;;;;;28.23;50.54;94613.16;5150597;27;20702;-72
2022/08/31 07:33:37;;;;;;;12.57;8.93;;;;;;;28.32;50.82;94620.06;5154725;27;20207;-72
2022/08/31 07:36:06;;;;;;;11.90;8.50;;;;;;;28.30;49.58;94606.56;5154491;27;20216;-72
2022/08/31 07:44:04;;;;;;;15.23;9.25;;;;;;;27.49;51.58;94607.53;5155009;27;20236;-72
2022/08/31 07:46:31;;;;;;;11.15;8.38;;;;;;;28.34;50.24;94601.69;5148271;27;20216;-72
2022/08/31 07:48:59;;;;;;;13.23;9.18;;;;;;;29.09;49.80;94605.00;5133942;27;20590;-71
2022/08/31 07:51:27;;;;;;;13.40;9.18;;;;;;;29.32;49.09;94601.84;5133655;27;20242;-71
2022/08/31 07:53:54;;;;;;;15.15;8.90;;;;;;;28.57;49.44;94597.81;5133719;27;20249;-71
2022/08/31 07:56:24;;;;;;;13.40;9.10;;;;;;;27.02;52.53;94609.16;5133206;27;20233;-72
2022/08/31 07:58:51;;;;;;;10.18;8.73;;;;;;;27.72;51.82;94605.81;5134066;27;20249;-71
2022/08/31 08:01:19;;;;;;;10.68;8.13;;;;;;;27.70;52.21;94602.69;5132824;27;20612;-71
2022/08/31 08:03:45;;;;;;;15.23;8.57;;;;;;;27.53;52.36;94605.47;5133442;27;20197;-71
2022/08/31 08:06:14;;;;;;;12.73;9.15;;;;;;;27.10;53.73;94600.19;5132676;27;20212;-72
2022/08/31 08:08:41;;;;;;;12.55;9.10;;;;;;;28.00;52.87;94598.69;5133436;27;20203;-72
2022/08/31 08:11:08;;;;;;;10.55;8.75;;;;;;;27.56;52.36;94593.47;5133070;27;20221;-72
2022/08/31 08:13:36;;;;;;;10.70;8.60;;;;;;;27.85;50.84;94590.72;5132972;27;20747;-72
2022/08/31 08:16:03;;;;;;;14.30;8.13;;;;;;;27.55;51.49;94591.88;5133105;27;20293;-71
2022/08/31 08:18:30;;;;;;;10.02;8.55;;;;;;;27.00;53.63;94595.66;5132829;27;20334;-72
2022/08/31 08:20:57;;;;;;;14.85;9.50;;;;;;;26.66;54.41;94595.25;5133162;27;20253;-72
2022/08/31 08:23:24;;;;;;;14.77;8.85;;;;;;;27.02;53.44;94582.13;5133084;27;20246;-71
2022/08/31 08:25:51;;;;;;;12.73;8.90;;;;;;;26.84;53.12;94590.84;5132386;27;20205;-72
2022/08/31 08:28:20;;;;;;;12.18;8.95;;;;;;;27.47;52.18;94596.06;5132601;27;20220;-71
2022/08/31 08:30:53;;;;;;;13.13;8.65;;;;;;;26.92;52.61;94590.69;5147808;27;20200;-71
2022/08/31 08:33:20;;;;;;;15.65;8.20;;;;;;;27.52;50.72;94589.19;5152355;27;20187;-72
2022/08/31 08:35:55;;;;;;;11.05;7.60;;;;;;;27.41;51.09;94589.47;5152831;27;20711;-72
2022/08/31 08:38:23;;;;;;;12.77;8.57;;;;;;;27.55;50.73;94591.88;5153004;27;20631;-71
2022/08/31 08:40:50;;;;;;;9.07;7.43;;;;;;;27.18;51.73;94595.25;5152547;27;20204;-71
2022/08/31 08:43:20;;;;;;;13.68;7.63;;;;;;;27.81;51.60;94597.59;5153011;27;20201;-71
2022/08/31 08:45:52;;;;;;;13.80;7.88;;;;;;;27.80;50.08;94590.47;5153640;27;20616;-72
2022/08/31 08:48:24;;;;;;;10.95;8.40;;;;;;;28.14;49.87;94574.00;5132478;27;20242;-71
2022/08/31 08:50:52;;;;;;;10.85;8.30;;;;;;;27.90;51.18;94576.22;5132761;27;20188;-72
2022/08/31 08:53:22;;;;;;;11.68;7.88;;;;;;;27.16;50.24;94578.19;5132428;27;20229;-71
2022/08/31 08:55:49;;;;;;;15.07;7.80;;;;;;;27.56;51.25;94571.22;5132037;27;20204;-71
2022/08/31 08:58:18;;;;;;;11.77;8.07;;;;;;;27.99;49.54;94564.47;5132071;27;20287;-72
2022/08/31 09:00:51;;;;;;;15.13;8.35;;;;;;;28.03;50.90;94565.13;5131702;27;20203;-73
2022/08/31 09:03:29;;;;;;;11.00;7.70;;;;;;;28.34;47.92;94556.31;5131487;27;20189;-71
2022/08/31 09:06:05;;;;;;;11.38;8.18;;;;;;;28.07;49.04;94549.09;5131963;27;20279;-76
2022/08/31 09:09:07;;;;;;;11.88;8.98;;;;;;;27.29;51.01;94561.59;5131629;27;20714;-72
2022/08/31 09:11:45;;;;;;;10.60;8.43;;;;;;;27.93;51.11;94544.72;5131437;27;20224;-72
2022/08/31 09:14:27;;;;;;;13.20;8.07;;;;;;;28.57;48.31;94547.63;5132319;27;20217;-72
2022/08/31 09:17:04;;;;;;;9.93;7.72;;;;;;;28.61;46.75;94543.50;5131612;27;20252;-73
2022/08/31 09:19:57;;;;;;;12.48;8.30;;;;;;;28.16;48.69;94535.28;5132098;27;20271;-71
2022/08/31 09:22:18;;;;;;;9.35;8.30;;;;;;;28.61;47.41;94537.16;5131577;27;20211;-72
2022/08/31 09:24:51;;;;;;;13.23;8.15;;;;;;;28.96;46.42;94533.25;5131865;27;20286;-71
2022/08/31 09:27:39;;;;;;;11.55;7.00;;;;;;;29.50;46.12;94521.09;5131755;27;20195;-71
2022/08/31 09:30:07;;;;;;;9.13;7.28;;;;;;;28.53;46.33;94524.69;5140815;27;20565;-74
2022/08/31 09:32:36;;;;;;;13.15;7.72;;;;;;;28.80;46.30;94519.44;5152155;27;20217;-72
2022/08/31 09:35:08;;;;;;;9.95;7.38;;;;;;;29.28;46.17;94520.22;5151552;27;20196;-72
2022/08/31 09:37:45;;;;;;;14.50;7.50;;;;;;;28.69;45.63;94532.94;5151754;27;20241;-73
2022/08/31 09:40:18;;;;;;;13.48;8.27;;;;;;;28.82;45.96;94527.38;5151975;27;20195;-72
2022/08/31 09:43:00;;;;;;;9.55;7.55;;;;;;;28.21;48.84;94515.28;5151863;27;20188;-72
2022/08/31 09:45:34;;;;;;;8.80;7.15;;;;;;;28.67;46.95;94518.66;5151722;27;20304;-72
2022/08/31 09:48:04;;;;;;;12.80;7.85;;;;;;;29.12;46.57;94506.44;5133396;27;20567;-70
2022/08/31 09:50:35;;;;;;;12.07;7.05;;;;;;;29.48;45.86;94503.22;5131549;27;20182;-72
2022/08/31 09:56:14;;;;;;;11.60;8.05;;;;;;;29.28;45.24;94484.72;5131324;27;20709;-71
2022/08/31 09:58:50;;;;;;;10.48;7.38;;;;;;;29.05;45.83;94476.78;5131329;27;20539;-72
2022/08/31 10:01:21;;;;;;;9.63;7.82;;;;;;;29.58;46.91;94471.34;5131367;27;20188;-71
2022/08/31 10:03:50;;;;;;;9.38;8.07;;;;;;;29.61;44.60;94474.03;5131610;27;20633;-72
2022/08/31 10:06:45;;;;;;;9.00;7.00;;;;;;;28.84;45.65;94477.47;5130814;27;20205;-72
2022/08/31 10:09:18;;;;;;;11.23;7.65;;;;;;;29.29;45.25;94468.75;5127793;27;20236;-71
2022/08/31 10:11:47;;;;;;;9.43;7.35;;;;;;;28.49;46.28;94471.03;5130471;27;20220;-70
2022/08/31 10:14:24;;;;;;;13.90;7.97;;;;;;;29.21;45.84;94478.63;5131125;27;20181;-72
2022/08/31 10:16:59;;;;;;;11.00;7.57;;;;;;;29.02;45.25;94468.53;5131050;27;20218;-72
2022/08/31 10:19:42;;;;;;;10.25;7.50;;;;;;;29.05;44.99;94462.03;5130890;27;20654;-78
2022/08/31 10:22:21;;;;;;;8.93;7.05;;;;;;;28.92;44.17;94457.28;5131084;27;20181;-73
2022/08/31 10:25:03;;;;;;;13.15;7.65;;;;;;;29.19;43.68;94458.75;5131114;27;20221;-73
2022/08/31 10:27:39;;;;;;;10.77;7.20;;;;;;;28.84;43.73;94450.38;5130958;28;20197;-71
2022/08/31 10:30:11;;;;;;;10.13;7.07;;;;;;;29.21;44.62;94456.31;5139387;27;20271;-72
2022/08/31 10:32:45;;;;;;;9.85;6.82;;;;;;;29.37;41.25;94439.38;5151386;27;20232;-72
2022/08/31 10:35:19;;;;;;;11.85;7.38;;;;;;;29.27;42.71;94437.72;5151216;27;20630;-72
2022/08/31 10:37:56;;;;;;;9.30;6.88;;;;;;;29.10;43.47;94439.16;5151372;27;20307;-71
2022/08/31 10:40:30;;;;;;;10.27;7.57;;;;;;;28.73;45.49;94430.41;5151900;27;20187;-71
2022/08/31 10:43:08;;;;;;;11.93;7.20;;;;;;;28.82;46.11;94436.13;5150726;27;20548;-72
2022/08/31 10:45:40;;;;;;;12.52;7.38;;;;;;;27.22;50.21;94451.25;5151421;27;20216;-75
2022/08/31 10:48:09;;;;;;;9.50;8.25;;;;;;;26.12;54.07;94465.88;5131764;27;20582;-76
2022/08/31 10:50:44;;;;;;;11.48;7.85;;;;;;;25.31;55.79;94473.09;5130879;28;20655;-72
2022/08/31 10:53:21;;;;;;;13.77;7.53;;;;;;;24.53;57.96;94480.81;5131262;28;20217;-72
2022/08/31 10:55:58;;;;;;;10.93;8.35;;;;;;;24.26;59.40;94483.63;5131102;28;20188;-71
2022/08/31 10:58:35;;;;;;;18.80;8.13;;;;;;;24.27;59.31;94484.41;5133410;27;20219;-72
2022/08/31 11:01:09;;;;;;;10.95;8.15;;;;;;;24.07;60.39;94482.28;5134496;27;20270;-75
2022/08/31 11:03:59;;;;;;;9.73;5.53;;;;;;;23.82;60.57;94492.91;5134787;27;20182;-72
2022/08/31 11:06:35;;;;;;;13.00;5.93;;;;;;;23.67;61.37;94494.28;5133902;27;20226;-71
2022/08/31 11:09:13;;;;;;;9.05;5.47;;;;;;;23.68;60.80;94501.38;5134263;27;20643;-72
2022/08/31 11:11:45;;;;;;;11.90;5.90;;;;;;;23.46;60.91;94511.13;5134280;27;20216;-72
2022/08/31 11:15:08;;;;;;;9.40;6.25;;;;;;;23.39;62.13;94504.47;5134382;27;20269;-71
2022/08/31 11:18:12;;;;;;;16.30;6.55;;;;;;;23.59;61.78;94509.41;5029975;28;20471;-72
2022/08/31 11:21:09;;;;;;;10.68;8.43;;;;;;;23.25;61.66;94525.94;5030546;28;20188;-73
2022/08/31 11:23:49;;;;;;;14.50;8.88;;;;;;;23.24;62.31;94536.22;5134164;27;20700;-72
2022/08/31 11:26:49;;;;;;;12.93;8.38;;;;;;;23.25;61.62;94532.28;5134165;27;20189;-72
2022/08/31 11:29:28;;;;;;;13.52;7.88;;;;;;;23.17;61.05;94514.19;5135301;27;20573;-71
2022/08/31 11:32:03;;;;;;;10.80;7.15;;;;;;;23.38;61.38;94521.47;5153991;27;20310;-72
2022/08/31 11:34:45;;;;;;;11.45;7.50;;;;;;;23.37;61.45;94506.84;5154346;27;20213;-71
2022/08/31 11:37:13;;;;;;;15.00;8.38;;;;;;;23.40;60.90;94500.50;5154122;27;20276;-72
2022/08/31 11:39:44;;;;;;;10.00;6.88;;;;;;;23.26;61.09;94492.38;5154619;27;20196;-71
2022/08/31 11:42:40;;;;;;;17.30;6.85;;;;;;;23.37;61.36;94487.50;5155015;27;20249;-71
2022/08/31 11:45:25;;;;;;;12.10;7.45;;;;;;;23.38;60.73;94491.06;5144851;27;20216;-71
2022/08/31 11:47:54;;;;;;;12.63;7.30;;;;;;;23.44;60.31;94485.88;5136967;27;20185;-71
2022/08/31 11:51:02;;;;;;;14.80;7.47;;;;;;;23.53;59.94;94486.16;5133686;27;20288;-72